Whiteside, Tennessee
Current Conditions -  °F | °C
As of 10:53 AM on Saturday 25 Oct 2014 (Local Time) from KCHA Reporting Station
Clear Clear  
Wind Chill: 66°   Ceiling: Unl
Heat Index: 66°   Visibility: 10mi
Dew Point: 49°   Wind: 0mph
Humidity: 54%   Direction: NA
Pressure: 30.11"   Gusts: NA
Location:  34.99°N, 85.5°W
Report Text: KCHA 251553Z 00000KT 10SM CLR 19/09 A3011 RMK AO2 SLP192 T01890094
Loading
Personal Weather Stations






























Interactive Weather Map
Tropical Storm Tracking
New forecast layout! Learn more

10-Day Weather Forecast

Advertisements
Track Severe Weather on mobile